Mari Lampton — WDE3648 — position and weather

sailwx.info

Track history (hours):
 
Tides and Currents Weather Stations Pressure Air Temp Water Temp Dewpoint Dewpoint Depression Visibility Wind Speed Wind Dir Waves Ship Positions

Mari Lampton

Owner: MAgnolia Marine Transport Company, Vicksburg, MS. More information available from US FCC via Universal Licensing System and Coast Guard Vessel Documentation Center.

Last reported at 2017-Jan-08 17:09 UTC. Time now 2017-Jan-20 07:49 UTC.
Position N 29°51' W 091°57'.
Warning: this ship's position is 11 days out of date.

Length 34 m.

Type: Towing. MMSI: 367342210.

Date/timePositionNaut miles runAvg speedWind from/ knotsBaromVisibWave heightAir tempDewpointWater temp
2017-Jan-08 17:09N 29°51' W 091°57'4 6.0
2017-Jan-08 16:33N 29°50' W 092°01'6 5.9
2017-Jan-08 15:33N 29°47' W 092°07'0 0.0
2017-Jan-08 14:33N 29°47' W 092°07'0 0.0
2017-Jan-08 13:33N 29°47' W 092°07'0 0.0
2017-Jan-08 12:33N 29°47' W 092°07'0 0.0
2017-Jan-08 11:33N 29°47' W 092°07'0 0.0
2017-Jan-08 10:33N 29°47' W 092°07'0 0.0
2017-Jan-08 09:33N 29°47' W 092°07'0 0.0
2017-Jan-08 08:33N 29°47' W 092°07'0 0.0
2017-Jan-08 07:33N 29°47' W 092°07'0 0.0
2017-Jan-08 06:33N 29°47' W 092°07'0 0.0
2017-Jan-08 05:33N 29°47' W 092°07'0 0.0
2017-Jan-08 04:33N 29°47' W 092°07'0 0.0
2017-Jan-08 03:33N 29°47' W 092°07'0 0.0
2017-Jan-08 02:33N 29°47' W 092°07'0 0.0
2017-Jan-08 01:33N 29°47' W 092°07'0 0.0
2017-Jan-08 00:33N 29°47' W 092°07'0 0.0
2017-Jan-07 23:33N 29°47' W 092°07'0 0.0
2017-Jan-07 22:33N 29°47' W 092°07'0 0.0
2017-Jan-07 21:33N 29°47' W 092°07'0 0.0
2017-Jan-07 20:33N 29°47' W 092°07'0 0.0
2017-Jan-07 19:33N 29°47' W 092°07'0 0.1
2017-Jan-07 18:33N 29°47' W 092°07'0 0.0
2017-Jan-07 17:33N 29°47' W 092°07'0 0.1
2017-Jan-07 16:33N 29°47' W 092°07'0 0.0
2017-Jan-07 15:33N 29°47' W 092°07'0 0.0
2017-Jan-07 14:33N 29°47' W 092°07'0 0.0
2017-Jan-07 13:33N 29°47' W 092°07'0 0.0
2017-Jan-07 12:33N 29°47' W 092°07'0 0.0
2017-Jan-07 11:33N 29°47' W 092°07'0 0.0
2017-Jan-07 10:33N 29°47' W 092°07'0 0.0
2017-Jan-07 09:33N 29°47' W 092°07'0 0.0
2017-Jan-07 08:33N 29°47' W 092°07'0 0.0
2017-Jan-07 07:33N 29°47' W 092°07'0 0.0
2017-Jan-07 06:33N 29°47' W 092°07'0 0.0
2017-Jan-07 05:33N 29°47' W 092°07'0 0.1
2017-Jan-07 04:33N 29°48' W 092°07'0 0.0
2017-Jan-07 03:33N 29°48' W 092°07'0 0.0
2017-Jan-07 02:33N 29°48' W 092°07'0 0.0
2017-Jan-07 01:33N 29°48' W 092°07'0 0.0
2017-Jan-07 00:33N 29°48' W 092°07'0 0.0
2017-Jan-06 23:33N 29°48' W 092°07'0 0.0
2017-Jan-06 22:33N 29°48' W 092°07'0 0.0
2017-Jan-06 21:33N 29°48' W 092°07'0 0.2
2017-Jan-06 20:33N 29°48' W 092°07'0 0.0
2017-Jan-06 19:33N 29°48' W 092°07'0 0.0
2017-Jan-06 18:33N 29°48' W 092°07'0 0.0
2017-Jan-06 17:33N 29°48' W 092°07'0 0.0
2017-Jan-06 16:33N 29°48' W 092°07'0 0.0
2017-Jan-06 15:33N 29°48' W 092°07'0 0.0
2017-Jan-06 14:33N 29°48' W 092°07'0 0.0
2017-Jan-06 13:33N 29°48' W 092°07'1 0.7
2017-Jan-06 12:33N 29°47' W 092°07'0 0.0
2017-Jan-06 11:33N 29°47' W 092°07'0 0.0
2017-Jan-06 10:33N 29°47' W 092°07'0 0.0
2017-Jan-06 09:33N 29°47' W 092°07'0 0.0
2017-Jan-06 08:33N 29°47' W 092°07'0 0.0
2017-Jan-06 07:33N 29°47' W 092°07'0 0.0
2017-Jan-06 06:33N 29°47' W 092°07'3 3.0
2017-Jan-06 05:33N 29°47' W 092°11'3 3.2
2017-Jan-06 04:33N 29°48' W 092°14'5 5.3
2017-Jan-06 03:33N 29°50' W 092°19'44 5.5
2017-Jan-05 19:33N 29°56' W 093°10'5 5.0
2017-Jan-05 18:33N 29°60' W 093°13'2 1.8
2017-Jan-05 17:33N 30°02' W 093°14'1 0.5
2017-Jan-05 16:33N 30°02' W 093°15'5 4.7
2017-Jan-05 15:33N 30°06' W 093°18'4 3.6
2017-Jan-05 14:33N 30°04' W 093°21'6 5.8
2017-Jan-05 13:33N 30°04' W 093°28'81 4.4
2017-Jan-04 19:16N 29°32' W 094°54'6 8.3
2017-Jan-04 18:33N 29°37' W 094°57'7 7.0
2017-Jan-04 17:33N 29°43' W 095°01'1 0.0
2017-Jan-02 17:15N 29°44' W 095°01'0 0.0
2016-Dec-31 18:31N 29°44' W 095°01'0 0.0
2016-Dec-30 22:29N 29°44' W 095°01'0 0.0
2016-Dec-30 16:06N 29°44' W 095°01'0 0.0
2016-Dec-30 15:29N 29°44' W 095°01'0 0.0
2016-Dec-30 14:19N 29°44' W 095°01'2 0.2
2016-Dec-30 07:19N 29°42' W 095°01'  
Track history (hours):
 
Tides and Currents Weather Stations Pressure Air Temp Water Temp Dewpoint Dewpoint Depression Visibility Wind Speed Wind Dir Waves Ship Positions

Mari Lampton

Owner: MAgnolia Marine Transport Company, Vicksburg, MS. More information available from US FCC via Universal Licensing System and Coast Guard Vessel Documentation Center.

Last reported at 2017-Jan-08 17:09 UTC. Time now 2017-Jan-20 07:49 UTC.
Position N 29°51' W 091°57'.
Warning: this ship's position is 11 days out of date.

Length 34 m.

Type: Towing. MMSI: 367342210.

Date/timePositionNaut miles runAvg speedWind from/ knotsBaromVisibWave heightAir tempDewpointWater temp
2017-Jan-08 17:09N 29°51' W 091°57'4 6.0
2017-Jan-08 16:33N 29°50' W 092°01'6 5.9
2017-Jan-08 15:33N 29°47' W 092°07'0 0.0
2017-Jan-08 14:33N 29°47' W 092°07'0 0.0
2017-Jan-08 13:33N 29°47' W 092°07'0 0.0
2017-Jan-08 12:33N 29°47' W 092°07'0 0.0
2017-Jan-08 11:33N 29°47' W 092°07'0 0.0
2017-Jan-08 10:33N 29°47' W 092°07'0 0.0
2017-Jan-08 09:33N 29°47' W 092°07'0 0.0
2017-Jan-08 08:33N 29°47' W 092°07'0 0.0
2017-Jan-08 07:33N 29°47' W 092°07'0 0.0
2017-Jan-08 06:33N 29°47' W 092°07'0 0.0
2017-Jan-08 05:33N 29°47' W 092°07'0 0.0
2017-Jan-08 04:33N 29°47' W 092°07'0 0.0
2017-Jan-08 03:33N 29°47' W 092°07'0 0.0
2017-Jan-08 02:33N 29°47' W 092°07'0 0.0
2017-Jan-08 01:33N 29°47' W 092°07'0 0.0
2017-Jan-08 00:33N 29°47' W 092°07'0 0.0
2017-Jan-07 23:33N 29°47' W 092°07'0 0.0
2017-Jan-07 22:33N 29°47' W 092°07'0 0.0
2017-Jan-07 21:33N 29°47' W 092°07'0 0.0
2017-Jan-07 20:33N 29°47' W 092°07'0 0.0
2017-Jan-07 19:33N 29°47' W 092°07'0 0.1
2017-Jan-07 18:33N 29°47' W 092°07'0 0.0
2017-Jan-07 17:33N 29°47' W 092°07'0 0.1
2017-Jan-07 16:33N 29°47' W 092°07'0 0.0
2017-Jan-07 15:33N 29°47' W 092°07'0 0.0
2017-Jan-07 14:33N 29°47' W 092°07'0 0.0
2017-Jan-07 13:33N 29°47' W 092°07'0 0.0
2017-Jan-07 12:33N 29°47' W 092°07'0 0.0
2017-Jan-07 11:33N 29°47' W 092°07'0 0.0
2017-Jan-07 10:33N 29°47' W 092°07'0 0.0
2017-Jan-07 09:33N 29°47' W 092°07'0 0.0
2017-Jan-07 08:33N 29°47' W 092°07'0 0.0
2017-Jan-07 07:33N 29°47' W 092°07'0 0.0
2017-Jan-07 06:33N 29°47' W 092°07'0 0.0
2017-Jan-07 05:33N 29°47' W 092°07'0 0.1
2017-Jan-07 04:33N 29°48' W 092°07'0 0.0
2017-Jan-07 03:33N 29°48' W 092°07'0 0.0
2017-Jan-07 02:33N 29°48' W 092°07'0 0.0
2017-Jan-07 01:33N 29°48' W 092°07'0 0.0
2017-Jan-07 00:33N 29°48' W 092°07'0 0.0
2017-Jan-06 23:33N 29°48' W 092°07'0 0.0
2017-Jan-06 22:33N 29°48' W 092°07'0 0.0
2017-Jan-06 21:33N 29°48' W 092°07'0 0.2
2017-Jan-06 20:33N 29°48' W 092°07'0 0.0
2017-Jan-06 19:33N 29°48' W 092°07'0 0.0
2017-Jan-06 18:33N 29°48' W 092°07'0 0.0
2017-Jan-06 17:33N 29°48' W 092°07'0 0.0
2017-Jan-06 16:33N 29°48' W 092°07'0 0.0
2017-Jan-06 15:33N 29°48' W 092°07'0 0.0
2017-Jan-06 14:33N 29°48' W 092°07'0 0.0
2017-Jan-06 13:33N 29°48' W 092°07'1 0.7
2017-Jan-06 12:33N 29°47' W 092°07'0 0.0
2017-Jan-06 11:33N 29°47' W 092°07'0 0.0
2017-Jan-06 10:33N 29°47' W 092°07'0 0.0
2017-Jan-06 09:33N 29°47' W 092°07'0 0.0
2017-Jan-06 08:33N 29°47' W 092°07'0 0.0
2017-Jan-06 07:33N 29°47' W 092°07'0 0.0
2017-Jan-06 06:33N 29°47' W 092°07'3 3.0
2017-Jan-06 05:33N 29°47' W 092°11'3 3.2
2017-Jan-06 04:33N 29°48' W 092°14'5 5.3
2017-Jan-06 03:33N 29°50' W 092°19'44 5.5
2017-Jan-05 19:33N 29°56' W 093°10'5 5.0
2017-Jan-05 18:33N 29°60' W 093°13'2 1.8
2017-Jan-05 17:33N 30°02' W 093°14'1 0.5
2017-Jan-05 16:33N 30°02' W 093°15'5 4.7
2017-Jan-05 15:33N 30°06' W 093°18'4 3.6
2017-Jan-05 14:33N 30°04' W 093°21'6 5.8
2017-Jan-05 13:33N 30°04' W 093°28'81 4.4
2017-Jan-04 19:16N 29°32' W 094°54'6 8.3
2017-Jan-04 18:33N 29°37' W 094°57'7 7.0
2017-Jan-04 17:33N 29°43' W 095°01'1 0.0
2017-Jan-02 17:15N 29°44' W 095°01'0 0.0
2016-Dec-31 18:31N 29°44' W 095°01'0 0.0
2016-Dec-30 22:29N 29°44' W 095°01'0 0.0
2016-Dec-30 16:06N 29°44' W 095°01'0 0.0
2016-Dec-30 15:29N 29°44' W 095°01'0 0.0
2016-Dec-30 14:19N 29°44' W 095°01'2 0.2
2016-Dec-30 07:19N 29°42' W 095°01'  

Dump ship's entire track history